createdAt,value
2018-07-12T00:00:18.932Z,81.16
2018-07-12T00:02:47.228Z,82.05
2018-07-12T00:05:15.523Z,81.27
2018-07-12T00:07:43.868Z,81.88
2018-07-12T00:10:12.176Z,81.93
2018-07-12T00:12:40.469Z,81.72
2018-07-12T00:15:08.808Z,81.59
2018-07-12T00:17:37.104Z,81.26
2018-07-12T00:20:05.406Z,81.75
2018-07-12T00:22:33.773Z,82.01
2018-07-12T00:25:02.077Z,83.14
2018-07-12T00:27:30.386Z,81.55
2018-07-12T00:29:58.715Z,82.15
2018-07-12T00:32:27.012Z,81.83
2018-07-12T00:34:55.309Z,82.41
2018-07-12T00:37:24.041Z,82.33
2018-07-12T00:39:52.552Z,82.06
2018-07-12T00:42:21.143Z,81.95
2018-07-12T00:44:49.473Z,82.93
2018-07-12T00:47:18.017Z,81.77
2018-07-12T00:49:46.308Z,82.67
2018-07-12T00:52:14.661Z,83.24
2018-07-12T00:54:43.472Z,82.21
2018-07-12T00:57:12.693Z,82.84
2018-07-12T00:59:41.541Z,84.54
2018-07-12T01:02:09.832Z,83.88
2018-07-12T01:04:38.158Z,83.08
2018-07-12T01:07:06.498Z,83.95
2018-07-12T01:09:34.797Z,85.05
2018-07-12T01:12:03.077Z,83.90
2018-07-12T01:14:31.426Z,83.02
2018-07-12T01:16:59.717Z,83.16
2018-07-12T01:19:28.005Z,83.19
2018-07-12T01:21:56.349Z,83.83
2018-07-12T01:24:24.641Z,84.41
2018-07-12T01:26:52.930Z,83.13
2018-07-12T01:29:21.295Z,83.23
2018-07-12T01:31:49.576Z,83.28
2018-07-12T01:34:17.855Z,83.22
2018-07-12T01:36:46.167Z,83.58
2018-07-12T01:39:14.452Z,82.90
2018-07-12T01:41:42.737Z,83.35
2018-07-12T01:44:11.072Z,83.40
2018-07-12T01:46:39.372Z,83.11
2018-07-12T01:49:07.671Z,83.60
2018-07-12T01:51:36.011Z,83.45
2018-07-12T01:54:04.288Z,84.39
2018-07-12T01:56:32.577Z,84.13
2018-07-12T01:59:01.161Z,83.94
2018-07-12T02:04:03.899Z,83.28
2018-07-12T02:06:32.228Z,84.12
2018-07-12T02:09:00.539Z,84.26
2018-07-12T02:14:02.134Z,84.76
2018-07-12T02:16:30.472Z,84.63
2018-07-12T02:18:58.764Z,84.33
2018-07-12T02:21:27.061Z,84.17
2018-07-12T02:23:55.410Z,84.33
2018-07-12T02:28:57.100Z,83.31
2018-07-12T02:31:25.393Z,84.22
2018-07-12T02:33:53.700Z,84.03
2018-07-12T02:36:22.036Z,83.23
2018-07-12T02:38:50.337Z,83.88
2018-07-12T02:41:18.888Z,83.35
2018-07-12T02:43:47.225Z,84.36
2018-07-12T02:46:15.504Z,84.35
2018-07-12T02:48:43.783Z,83.31
2018-07-12T02:51:12.127Z,82.92
2018-07-12T02:53:40.426Z,83.51
2018-07-12T02:56:08.725Z,84.19
2018-07-12T02:58:37.066Z,82.97
2018-07-12T03:01:05.365Z,83.66
2018-07-12T03:03:33.653Z,83.89
2018-07-12T03:06:02.017Z,83.99
2018-07-12T03:08:30.316Z,83.62
2018-07-12T03:10:58.609Z,85.10
2018-07-12T03:13:26.952Z,85.46
2018-07-12T03:15:55.249Z,84.18
2018-07-12T03:18:23.553Z,84.10
2018-07-12T03:20:51.888Z,83.98
2018-07-12T03:23:20.188Z,87.24
2018-07-12T03:25:48.489Z,87.14
2018-07-12T03:28:16.827Z,86.16
2018-07-12T03:30:45.108Z,84.06
2018-07-12T03:33:13.393Z,85.67
2018-07-12T03:35:41.731Z,86.18
2018-07-12T03:38:10.028Z,85.09
2018-07-12T03:40:38.351Z,86.15
2018-07-12T03:43:06.698Z,86.27
2018-07-12T03:45:35.069Z,85.69
2018-07-12T03:48:03.355Z,85.53
2018-07-12T03:50:31.702Z,86.19
2018-07-12T03:52:59.993Z,84.86
2018-07-12T03:55:28.308Z,83.89
2018-07-12T03:57:56.682Z,83.59
2018-07-12T04:00:24.956Z,85.69
2018-07-12T04:02:53.256Z,85.77
2018-07-12T04:05:21.600Z,84.43
2018-07-12T04:07:49.884Z,83.91
2018-07-12T04:10:18.172Z,84.32
2018-07-12T04:12:46.484Z,85.45
2018-07-12T04:15:14.780Z,83.28
2018-07-12T04:17:43.072Z,85.88
2018-07-12T04:20:11.404Z,83.80
2018-07-12T04:22:39.695Z,83.31
2018-07-12T04:25:07.968Z,85.16
2018-07-12T04:27:36.304Z,84.85
2018-07-12T04:30:04.592Z,86.37
2018-07-12T04:32:32.880Z,84.39
2018-07-12T04:35:01.213Z,83.83
2018-07-12T04:37:29.513Z,85.67
2018-07-12T04:39:57.796Z,83.90
2018-07-12T04:42:26.127Z,86.07
2018-07-12T04:44:54.419Z,85.10
2018-07-12T04:47:22.720Z,84.09
2018-07-12T04:49:51.077Z,83.90
2018-07-12T04:52:19.380Z,86.25
2018-07-12T04:54:47.666Z,83.76
2018-07-12T04:57:16.016Z,83.50
2018-07-12T04:59:44.316Z,85.11
2018-07-12T05:02:12.607Z,83.45
2018-07-12T05:04:40.931Z,83.40
2018-07-12T05:07:09.235Z,84.32
2018-07-12T05:09:37.528Z,84.55
2018-07-12T05:12:05.853Z,83.64
2018-07-12T05:14:34.151Z,85.14
2018-07-12T05:17:02.440Z,83.49
2018-07-12T05:19:30.764Z,84.71
2018-07-12T05:21:59.092Z,84.66
2018-07-12T05:24:27.372Z,82.97
2018-07-12T05:26:55.701Z,83.94
2018-07-12T05:29:23.995Z,83.22
2018-07-12T05:31:52.280Z,82.22
2018-07-12T05:34:20.637Z,83.11
2018-07-12T05:37:00.400Z,83.54
2018-07-12T05:39:30.111Z,82.51
2018-07-12T05:41:59.800Z,84.17
2018-07-12T05:44:29.454Z,83.84
2018-07-12T05:46:59.233Z,84.67
2018-07-12T05:49:28.888Z,83.67
2018-07-12T05:51:58.576Z,83.06
2018-07-12T05:54:28.483Z,82.39
2018-07-12T05:56:58.127Z,82.69
2018-07-12T05:59:27.753Z,82.41
2018-07-12T06:02:08.617Z,82.70
2018-07-12T06:04:38.292Z,80.93
2018-07-12T06:07:07.959Z,82.39
2018-07-12T06:09:37.651Z,81.89
2018-07-12T06:12:07.325Z,83.24
2018-07-12T06:14:36.947Z,81.84
2018-07-12T06:17:06.624Z,79.65
2018-07-12T06:19:36.267Z,81.68
2018-07-12T06:22:06.017Z,80.62
2018-07-12T06:24:35.783Z,79.54
2018-07-12T06:27:05.582Z,79.70
2018-07-12T06:29:35.337Z,79.80
2018-07-12T06:32:05.080Z,81.80
2018-07-12T06:34:34.780Z,80.86
2018-07-12T06:37:04.501Z,80.91
2018-07-12T06:39:34.185Z,81.01
2018-07-12T06:42:03.853Z,80.07
2018-07-12T06:44:33.521Z,81.47
2018-07-12T06:47:03.181Z,79.07
2018-07-12T06:49:32.892Z,79.33
2018-07-12T06:52:02.592Z,79.74
2018-07-12T06:54:32.232Z,79.92
2018-07-12T06:57:01.877Z,79.88
2018-07-12T06:59:31.580Z,78.53
2018-07-12T07:02:01.245Z,78.48
2018-07-12T07:04:30.924Z,77.45
2018-07-12T07:07:00.641Z,76.75
2018-07-12T07:09:30.304Z,78.35
2018-07-12T07:11:59.952Z,78.17
2018-07-12T07:14:29.656Z,77.83
2018-07-12T07:16:59.309Z,77.84
2018-07-12T07:19:28.959Z,77.84
2018-07-12T07:21:58.679Z,76.92
2018-07-12T07:24:28.357Z,77.42
2018-07-12T07:26:58.024Z,77.19
2018-07-12T07:29:27.760Z,75.10
2018-07-12T07:31:57.505Z,75.23
2018-07-12T07:34:27.372Z,74.50
2018-07-12T07:36:57.049Z,74.35
2018-07-12T07:39:26.767Z,74.09
2018-07-12T07:41:56.461Z,74.40
2018-07-12T07:44:26.129Z,72.95
2018-07-12T07:46:55.785Z,72.10
2018-07-12T07:49:25.826Z,71.37
2018-07-12T07:51:55.363Z,71.21
2018-07-12T07:54:31.639Z,71.79
2018-07-12T07:57:01.298Z,71.39
2018-07-12T07:59:30.964Z,70.05
2018-07-12T08:02:00.713Z,70.20
2018-07-12T08:04:30.432Z,70.08
2018-07-12T08:07:00.133Z,70.16
2018-07-12T08:09:29.906Z,68.16
2018-07-12T08:11:59.614Z,67.66
2018-07-12T08:14:29.300Z,68.45
2018-07-12T08:16:59.082Z,66.85
2018-07-12T08:19:28.804Z,67.47
2018-07-12T08:22:08.305Z,67.21
2018-07-12T08:24:38.037Z,66.94
2018-07-12T08:27:07.745Z,67.09
2018-07-12T08:29:37.415Z,65.61
2018-07-12T08:32:07.182Z,65.21
2018-07-12T08:34:36.880Z,65.11
2018-07-12T08:37:06.632Z,65.68
2018-07-12T08:39:36.297Z,65.68
2018-07-12T08:42:06.017Z,64.50
2018-07-12T08:44:35.720Z,64.33
2018-07-12T08:47:05.530Z,63.88
2018-07-12T08:49:35.243Z,63.67
2018-07-12T08:52:04.924Z,63.19
2018-07-12T08:54:34.623Z,63.46
2018-07-12T08:57:04.350Z,63.49
2018-07-12T08:59:34.000Z,60.74
2018-07-12T09:02:04.614Z,61.82
2018-07-12T09:04:34.309Z,61.91
2018-07-12T09:07:03.941Z,62.50
2018-07-12T09:09:33.685Z,60.57
2018-07-12T09:12:03.349Z,61.76
2018-07-12T09:14:33.016Z,59.59
2018-07-12T09:17:02.812Z,59.66
2018-07-12T09:19:32.470Z,60.26
2018-07-12T09:22:02.205Z,59.57
2018-07-12T09:24:31.868Z,59.84
2018-07-12T09:27:01.524Z,59.64
2018-07-12T09:29:31.216Z,59.04
2018-07-12T09:32:00.887Z,59.35
2018-07-12T09:34:30.605Z,59.29
2018-07-12T09:37:00.327Z,57.86
2018-07-12T09:39:30.009Z,58.97
2018-07-12T09:41:59.748Z,58.96
2018-07-12T09:44:29.405Z,59.13
2018-07-12T09:46:59.170Z,58.22
2018-07-12T09:49:28.834Z,60.06
2018-07-12T09:51:58.488Z,58.06
2018-07-12T09:54:28.184Z,58.56
2018-07-12T09:57:08.908Z,57.89
2018-07-12T09:59:38.616Z,56.74
2018-07-12T10:02:13.321Z,56.87
2018-07-12T10:04:42.996Z,56.30
2018-07-12T10:07:17.865Z,56.24
2018-07-12T10:09:52.706Z,56.92
2018-07-12T10:12:27.508Z,56.91
2018-07-12T10:15:02.655Z,55.60
2018-07-12T10:17:37.572Z,52.74
2018-07-12T10:20:07.269Z,51.74
2018-07-12T10:22:36.899Z,53.22
2018-07-12T10:25:07.177Z,52.93
2018-07-12T10:27:36.803Z,55.15
2018-07-12T10:30:06.445Z,54.89
2018-07-12T10:32:36.120Z,52.92
2018-07-12T10:35:05.909Z,50.99
2018-07-12T10:37:35.526Z,50.75
2018-07-12T10:40:05.220Z,52.02
2018-07-12T10:42:34.832Z,51.01
2018-07-12T10:45:04.491Z,51.67
2018-07-12T10:47:34.188Z,48.67
2018-07-12T10:50:03.816Z,49.29
2018-07-12T10:52:33.440Z,49.26
2018-07-12T10:55:03.115Z,48.57
2018-07-12T10:57:32.754Z,47.52
2018-07-12T11:00:02.373Z,49.21
2018-07-12T11:02:32.043Z,49.01
2018-07-12T11:05:01.732Z,49.00
2018-07-12T11:07:31.376Z,47.33
2018-07-12T11:10:01.085Z,47.74
2018-07-12T11:12:30.720Z,45.34
2018-07-12T11:15:00.355Z,47.90
2018-07-12T11:17:30.072Z,46.32
2018-07-12T11:20:00.082Z,47.37
2018-07-12T11:22:29.760Z,45.12
2018-07-12T11:24:59.412Z,45.66
2018-07-12T11:27:29.075Z,48.43
2018-07-12T11:29:59.759Z,47.75
2018-07-12T11:32:29.416Z,47.43
2018-07-12T11:34:59.034Z,44.83
2018-07-12T11:37:28.727Z,42.22
2018-07-12T11:39:58.404Z,43.67
2018-07-12T11:42:28.048Z,43.50
2018-07-12T11:44:57.692Z,43.72
2018-07-12T11:47:27.344Z,41.04
2018-07-12T11:49:57.064Z,41.82
2018-07-12T11:52:26.704Z,42.97
2018-07-12T11:54:56.433Z,42.03
2018-07-12T11:57:26.085Z,41.61
2018-07-12T11:59:55.696Z,40.32
2018-07-12T12:02:25.403Z,41.34
2018-07-12T12:04:55.115Z,42.87
2018-07-12T12:07:24.789Z,43.31
2018-07-12T12:09:54.471Z,43.36
2018-07-12T12:12:24.147Z,43.80
2018-07-12T12:14:53.840Z,43.62
2018-07-12T12:17:23.515Z,44.75
2018-07-12T12:19:53.150Z,46.42
2018-07-12T12:22:22.771Z,46.57
2018-07-12T12:24:52.628Z,46.01
2018-07-12T12:27:22.304Z,46.61
2018-07-12T12:29:51.908Z,47.20
2018-07-12T12:32:21.581Z,47.97
2018-07-12T12:34:51.199Z,47.94
2018-07-12T12:37:20.816Z,46.66
2018-07-12T12:39:50.483Z,47.65
2018-07-12T12:42:20.098Z,47.81
2018-07-12T12:44:49.711Z,45.54
2018-07-12T12:47:19.379Z,44.96
2018-07-12T12:49:49.048Z,43.17
2018-07-12T12:52:18.751Z,43.12
2018-07-12T12:54:48.980Z,40.57
2018-07-12T12:57:19.107Z,40.90
2018-07-12T12:59:48.776Z,40.12
2018-07-12T13:02:18.552Z,40.41
2018-07-12T13:04:48.235Z,39.04
2018-07-12T13:07:17.865Z,39.96
2018-07-12T13:09:47.532Z,40.52
2018-07-12T13:12:17.173Z,41.67
2018-07-12T13:14:47.001Z,40.54
2018-07-12T13:17:16.703Z,40.64
2018-07-12T13:19:46.347Z,39.98
2018-07-12T13:22:16.007Z,37.60
2018-07-12T13:24:45.692Z,36.25
2018-07-12T13:27:15.356Z,36.91
2018-07-12T13:29:45.264Z,37.31
2018-07-12T13:32:14.918Z,36.73
2018-07-12T13:34:44.533Z,38.47
2018-07-12T13:37:14.223Z,38.34
2018-07-12T13:39:43.856Z,37.00
2018-07-12T13:42:13.480Z,34.78
2018-07-12T13:44:43.166Z,35.73
2018-07-12T13:47:12.791Z,35.85
2018-07-12T13:49:42.395Z,37.02
2018-07-12T13:52:12.146Z,39.35
2018-07-12T13:54:41.764Z,39.10
2018-07-12T13:57:11.403Z,39.71
2018-07-12T13:59:41.106Z,38.26
2018-07-12T14:02:10.751Z,38.42
2018-07-12T14:04:40.394Z,39.62
2018-07-12T14:07:10.091Z,40.37
2018-07-12T14:09:39.693Z,39.67
2018-07-12T14:12:09.324Z,39.63
2018-07-12T14:14:39.040Z,38.56
2018-07-12T14:17:08.678Z,38.89
2018-07-12T14:19:38.332Z,38.80
2018-07-12T14:22:08.000Z,37.02
2018-07-12T14:24:37.651Z,38.34
2018-07-12T14:27:07.341Z,37.28
2018-07-12T14:29:36.980Z,36.09
2018-07-12T14:32:06.635Z,36.36
2018-07-12T14:34:36.283Z,35.83
2018-07-12T14:37:05.925Z,35.44
2018-07-12T14:39:35.534Z,37.19
2018-07-12T14:42:05.220Z,36.67
2018-07-12T14:44:34.849Z,35.80
2018-07-12T14:47:04.525Z,36.69
2018-07-12T14:49:34.180Z,37.34
2018-07-12T14:52:03.828Z,37.46
2018-07-12T14:54:33.510Z,36.94
2018-07-12T14:57:03.193Z,37.35
2018-07-12T14:59:32.807Z,38.09
2018-07-12T15:02:02.492Z,38.03
2018-07-12T15:04:32.184Z,38.53
2018-07-12T15:07:01.812Z,37.17
2018-07-12T15:09:31.453Z,36.82
2018-07-12T15:12:01.121Z,37.88
2018-07-12T15:14:30.734Z,37.36
2018-07-12T15:17:00.388Z,38.33
2018-07-12T15:19:30.096Z,38.73
2018-07-12T15:21:59.739Z,38.69
2018-07-12T15:24:29.365Z,38.52
2018-07-12T15:26:59.056Z,38.05
2018-07-12T15:29:28.707Z,36.17
2018-07-12T15:31:58.324Z,35.70
2018-07-12T15:34:27.989Z,37.33
2018-07-12T15:36:57.639Z,38.75
2018-07-12T15:39:27.505Z,37.99
2018-07-12T15:41:57.115Z,37.28
2018-07-12T15:44:26.754Z,38.56
2018-07-12T15:46:56.411Z,38.13
2018-07-12T15:49:26.040Z,38.32
2018-07-12T15:51:55.681Z,39.69
2018-07-12T15:54:25.397Z,37.84
2018-07-12T15:56:55.032Z,39.73
2018-07-12T15:59:24.656Z,38.74
2018-07-12T16:01:54.410Z,39.21
2018-07-12T16:04:24.055Z,39.98
2018-07-12T16:06:53.844Z,39.97
2018-07-12T16:09:23.496Z,40.42
2018-07-12T16:11:53.112Z,39.95
2018-07-12T16:14:22.844Z,40.42
2018-07-12T16:16:52.583Z,41.00
2018-07-12T16:19:22.196Z,42.12
2018-07-12T16:21:51.812Z,43.67
2018-07-12T16:24:21.459Z,45.07
2018-07-12T16:26:51.153Z,45.90
2018-07-12T16:29:20.763Z,46.30
2018-07-12T16:31:50.455Z,47.63
2018-07-12T16:34:20.104Z,46.88
2018-07-12T16:36:49.721Z,46.99
2018-07-12T16:39:19.368Z,47.47
2018-07-12T16:41:49.026Z,47.53
2018-07-12T16:44:18.932Z,48.51
2018-07-12T16:46:48.600Z,49.02
2018-07-12T16:49:18.219Z,49.23
2018-07-12T16:51:47.883Z,48.45
2018-07-12T16:54:17.640Z,48.65
2018-07-12T16:56:47.279Z,49.03
2018-07-12T16:59:16.893Z,48.60
2018-07-12T17:01:46.560Z,48.91
2018-07-12T17:04:16.227Z,49.07
2018-07-12T17:06:45.837Z,48.09
2018-07-12T17:09:15.512Z,47.75
2018-07-12T17:11:45.180Z,48.39
2018-07-12T17:14:14.787Z,48.37
2018-07-12T17:16:44.396Z,48.06
2018-07-12T17:19:14.071Z,46.65
2018-07-12T17:21:43.675Z,47.70
2018-07-12T17:24:13.295Z,47.89
2018-07-12T17:26:43.128Z,47.48
2018-07-12T17:29:12.748Z,50.62
2018-07-12T17:31:42.387Z,50.24
2018-07-12T17:34:12.052Z,48.71
2018-07-12T17:36:41.675Z,48.63
2018-07-12T17:39:11.289Z,49.31
2018-07-12T17:41:40.980Z,49.02
2018-07-12T17:44:10.604Z,50.19
2018-07-12T17:46:40.264Z,49.51
2018-07-12T17:49:09.915Z,50.29
2018-07-12T17:51:39.564Z,50.71
2018-07-12T17:54:09.275Z,51.80
2018-07-12T17:56:38.900Z,51.79
2018-07-12T17:59:08.591Z,52.90
2018-07-12T18:01:38.264Z,53.57
2018-07-12T18:04:07.896Z,52.77
2018-07-12T18:06:37.488Z,52.67
2018-07-12T18:09:07.979Z,53.84
2018-07-12T18:11:37.600Z,53.43
2018-07-12T18:14:07.260Z,53.24
2018-07-12T18:16:36.860Z,53.64
2018-07-12T18:19:06.584Z,54.33
2018-07-12T18:21:36.215Z,54.22
2018-07-12T18:24:05.880Z,54.87
2018-07-12T18:26:35.512Z,54.60
2018-07-12T18:29:05.156Z,54.59
2018-07-12T18:31:34.776Z,55.48
2018-07-12T18:34:04.404Z,54.51
2018-07-12T18:36:34.064Z,54.68
2018-07-12T18:39:05.120Z,55.33
2018-07-12T18:41:34.791Z,55.25
2018-07-12T18:44:04.515Z,55.01
2018-07-12T18:46:34.148Z,55.20
2018-07-12T18:49:03.761Z,55.46
2018-07-12T18:51:33.371Z,56.05
2018-07-12T18:54:03.159Z,55.74
2018-07-12T18:56:32.756Z,56.54
2018-07-12T18:59:02.369Z,56.52
2018-07-12T19:01:32.076Z,56.20
2018-07-12T19:04:01.704Z,56.20
2018-07-12T19:06:31.424Z,56.17
2018-07-12T19:09:01.276Z,56.42
2018-07-12T19:11:30.919Z,56.89
2018-07-12T19:14:00.520Z,56.69
2018-07-12T19:16:30.200Z,56.84
2018-07-12T19:18:59.800Z,57.63
2018-07-12T19:21:29.436Z,57.58
2018-07-12T19:23:59.121Z,57.66
2018-07-12T19:26:28.744Z,57.56
2018-07-12T19:28:58.409Z,58.43
2018-07-12T19:31:28.138Z,57.67
2018-07-12T19:33:57.759Z,57.64
2018-07-12T19:36:27.487Z,58.51
2018-07-12T19:38:57.202Z,58.14
2018-07-12T19:41:26.945Z,58.63
2018-07-12T19:43:56.656Z,58.29
2018-07-12T19:46:26.343Z,59.12
2018-07-12T19:48:56.073Z,58.65
2018-07-12T19:51:25.720Z,59.44
2018-07-12T19:53:55.380Z,59.38
2018-07-12T19:56:25.016Z,59.87
2018-07-12T19:58:54.640Z,59.53
2018-07-12T20:01:24.319Z,59.61
2018-07-12T20:03:53.975Z,59.90
2018-07-12T20:06:23.640Z,60.50
2018-07-12T20:08:53.291Z,60.86
2018-07-12T20:11:22.976Z,60.82
2018-07-12T20:13:52.597Z,61.16
2018-07-12T20:16:22.264Z,60.92
2018-07-12T20:18:51.871Z,60.20
2018-07-12T20:21:21.535Z,61.00
2018-07-12T20:23:51.227Z,60.58
2018-07-12T20:26:20.873Z,60.45
2018-07-12T20:28:50.463Z,60.57
2018-07-12T20:31:20.107Z,60.46
2018-07-12T20:33:49.852Z,60.07
2018-07-12T20:36:19.550Z,60.63
2018-07-12T20:38:49.160Z,60.66
2018-07-12T20:41:18.785Z,60.43
2018-07-12T20:43:48.449Z,60.95
2018-07-12T20:46:18.068Z,61.03
2018-07-12T20:48:47.692Z,61.37
2018-07-12T20:51:17.368Z,60.90
2018-07-12T20:53:46.992Z,61.27
2018-07-12T20:56:16.680Z,60.66
2018-07-12T20:58:46.284Z,61.39
2018-07-12T21:01:15.921Z,61.63
2018-07-12T21:03:45.580Z,61.49
2018-07-12T21:06:15.211Z,61.54
2018-07-12T21:08:44.834Z,62.00
2018-07-12T21:11:14.787Z,63.10
2018-07-12T21:13:44.412Z,62.71
2018-07-12T21:16:14.144Z,62.97
2018-07-12T21:18:43.776Z,63.12
2018-07-12T21:21:13.403Z,63.78
2018-07-12T21:23:43.162Z,63.19
2018-07-12T21:26:12.749Z,62.37
2018-07-12T21:28:42.375Z,61.91
2018-07-12T21:31:12.052Z,60.97
2018-07-12T21:33:41.772Z,60.55
2018-07-12T21:36:11.348Z,60.79
2018-07-12T21:38:41.089Z,61.52
2018-07-12T21:41:10.717Z,60.72
2018-07-12T21:43:40.351Z,61.27
2018-07-12T21:46:10.096Z,61.81
2018-07-12T21:48:39.717Z,61.54
2018-07-12T21:51:09.579Z,61.66
2018-07-12T21:53:39.207Z,62.25
2018-07-12T21:56:08.848Z,62.30
2018-07-12T21:58:38.528Z,62.94
2018-07-12T22:01:08.152Z,63.68
2018-07-12T22:03:37.783Z,63.74
2018-07-12T22:06:07.452Z,63.66
2018-07-12T22:08:37.080Z,63.65
2018-07-12T22:11:07.312Z,64.11
2018-07-12T22:13:37.919Z,64.18
2018-07-12T22:16:07.679Z,64.49
2018-07-12T22:18:37.315Z,64.79
2018-07-12T22:21:06.996Z,64.60
2018-07-12T22:23:36.863Z,64.83
2018-07-12T22:26:06.506Z,65.06
2018-07-12T22:28:36.203Z,65.35
2018-07-12T22:31:05.848Z,65.95
2018-07-12T22:33:35.480Z,66.13
2018-07-12T22:36:05.216Z,66.20
2018-07-12T22:38:34.854Z,66.27
2018-07-12T22:41:04.513Z,67.12
2018-07-12T22:43:34.180Z,67.08
2018-07-12T22:46:03.800Z,66.72
2018-07-12T22:48:33.509Z,66.22
2018-07-12T22:51:03.120Z,66.04
2018-07-12T22:53:32.747Z,66.04
2018-07-12T22:56:02.379Z,66.33
2018-07-12T22:58:32.051Z,65.95
2018-07-12T23:01:01.680Z,66.41
2018-07-12T23:03:31.304Z,66.81
2018-07-12T23:06:00.959Z,67.04
2018-07-12T23:08:30.583Z,66.89
2018-07-12T23:11:00.251Z,67.19
2018-07-12T23:13:29.900Z,67.70
2018-07-12T23:15:59.548Z,67.65
2018-07-12T23:18:29.235Z,67.66
2018-07-12T23:20:58.864Z,67.70
2018-07-12T23:23:28.480Z,67.81
2018-07-12T23:25:58.167Z,67.59
2018-07-12T23:28:27.800Z,67.77
2018-07-12T23:30:57.484Z,67.38
2018-07-12T23:33:27.156Z,67.52
2018-07-12T23:35:56.796Z,67.29
2018-07-12T23:38:26.472Z,67.57
2018-07-12T23:40:56.090Z,67.46
2018-07-12T23:43:25.719Z,67.48
2018-07-12T23:45:55.392Z,67.21
2018-07-12T23:48:25.028Z,67.22
2018-07-12T23:50:54.644Z,67.05
2018-07-12T23:53:24.311Z,66.70
2018-07-12T23:55:53.964Z,67.42
2018-07-12T23:58:23.676Z,67.00
